createdAt,value
2022-09-06T00:00:44.504Z,6.97
2022-09-06T00:03:46.666Z,7.85
2022-09-06T00:06:48.291Z,6.53
2022-09-06T00:09:49.883Z,7.28
2022-09-06T00:12:51.759Z,7.60
2022-09-06T00:15:53.560Z,7.93
2022-09-06T00:18:55.989Z,7.68
2022-09-06T00:21:57.678Z,7.10
2022-09-06T00:24:59.428Z,7.55
2022-09-06T00:28:03.544Z,7.63
2022-09-06T00:31:20.688Z,7.35
2022-09-06T00:34:22.595Z,7.57
2022-09-06T00:37:24.525Z,7.55
2022-09-06T00:40:27.389Z,7.90
2022-09-06T00:43:29.236Z,8.73
2022-09-06T00:46:32.721Z,8.57
2022-09-06T00:49:46.151Z,9.13
2022-09-06T00:52:50.286Z,9.00
2022-09-06T00:55:53.316Z,9.35
2022-09-06T00:58:55.076Z,9.50
2022-09-06T01:01:57.642Z,9.77
2022-09-06T01:05:00.026Z,9.77
2022-09-06T01:08:20.861Z,10.90
2022-09-06T01:11:30.272Z,10.52
2022-09-06T01:14:50.252Z,10.82
2022-09-06T01:18:17.020Z,10.32
2022-09-06T01:21:29.024Z,10.68
2022-09-06T01:24:55.678Z,10.05
2022-09-06T01:28:16.081Z,10.52
2022-09-06T01:31:36.510Z,10.23
2022-09-06T01:34:47.996Z,9.68
2022-09-06T01:37:49.919Z,9.48
2022-09-06T01:40:51.684Z,9.80
2022-09-06T01:43:54.904Z,9.77
2022-09-06T01:47:04.088Z,9.45
2022-09-06T01:50:36.909Z,9.32
2022-09-06T01:54:17.804Z,8.63
2022-09-06T01:57:51.792Z,9.23
2022-09-06T02:01:21.519Z,8.90
2022-09-06T02:04:30.049Z,9.18
2022-09-06T02:07:33.901Z,8.90
2022-09-06T02:10:43.577Z,8.70
2022-09-06T02:13:52.634Z,9.05
2022-09-06T02:16:57.716Z,8.20
2022-09-06T02:20:10.851Z,8.90
2022-09-06T02:23:13.349Z,8.20
2022-09-06T02:26:22.046Z,8.25
2022-09-06T02:29:24.123Z,8.63
2022-09-06T02:32:27.251Z,8.13
2022-09-06T02:35:29.440Z,7.95
2022-09-06T02:38:34.141Z,8.77
2022-09-06T02:41:36.177Z,9.13
2022-09-06T02:44:37.899Z,8.18
2022-09-06T02:47:39.601Z,8.60
2022-09-06T02:50:41.540Z,7.85
2022-09-06T02:53:43.345Z,8.07
2022-09-06T02:56:49.004Z,7.72
2022-09-06T02:59:53.374Z,8.00
2022-09-06T03:02:55.949Z,7.68
2022-09-06T03:05:57.695Z,7.50
2022-09-06T03:09:00.264Z,7.70
2022-09-06T03:12:02.047Z,7.53
2022-09-06T03:15:05.498Z,8.10
2022-09-06T03:18:07.725Z,6.70
2022-09-06T03:21:09.879Z,7.65
2022-09-06T03:24:11.663Z,7.50
2022-09-06T03:27:13.904Z,7.00
2022-09-06T03:30:15.779Z,6.68
2022-09-06T03:33:18.391Z,6.95
2022-09-06T03:36:20.124Z,7.47
2022-09-06T03:39:21.836Z,7.63
2022-09-06T03:42:26.368Z,6.65
2022-09-06T03:45:28.245Z,6.70
2022-09-06T03:48:30.228Z,6.78
2022-09-06T03:51:32.195Z,6.60
2022-09-06T03:54:34.175Z,6.60
2022-09-06T03:57:35.853Z,6.68
2022-09-06T04:00:37.648Z,6.50
2022-09-06T04:03:39.745Z,6.88
2022-09-06T04:06:41.849Z,6.05
2022-09-06T04:09:43.920Z,6.60
2022-09-06T04:12:45.835Z,6.30
2022-09-06T04:15:48.129Z,6.15
2022-09-06T04:18:50.016Z,6.90
2022-09-06T04:21:51.934Z,6.20
2022-09-06T04:24:53.961Z,5.93
2022-09-06T04:27:55.839Z,6.55
2022-09-06T04:31:04.066Z,6.15
2022-09-06T04:34:06.794Z,6.18
2022-09-06T04:37:08.713Z,5.82
2022-09-06T04:40:10.907Z,5.75
2022-09-06T04:43:12.722Z,6.13
2022-09-06T04:46:30.676Z,5.90
2022-09-06T04:49:32.466Z,5.72
2022-09-06T04:52:34.253Z,6.60
2022-09-06T04:55:36.151Z,5.72
2022-09-06T04:58:38.045Z,5.72
2022-09-06T05:01:39.922Z,6.03
2022-09-06T05:04:41.769Z,5.80
2022-09-06T05:08:14.961Z,6.00
2022-09-06T05:12:21.132Z,6.30
2022-09-06T05:15:23.603Z,6.25
2022-09-06T05:18:25.315Z,5.88
2022-09-06T05:21:27.124Z,5.68
2022-09-06T05:24:28.890Z,6.00
2022-09-06T05:27:30.720Z,6.00
2022-09-06T05:30:32.552Z,5.72
2022-09-06T05:33:34.491Z,5.82
2022-09-06T05:36:36.325Z,6.00
2022-09-06T05:39:38.107Z,5.97
2022-09-06T05:42:41.253Z,6.57
2022-09-06T05:45:43.396Z,5.78
2022-09-06T05:48:52.120Z,6.40
2022-09-06T05:51:53.756Z,5.47
2022-09-06T05:54:55.653Z,6.13
2022-09-06T05:57:57.293Z,6.57
2022-09-06T06:01:17.874Z,6.30
2022-09-06T06:04:21.778Z,6.78
2022-09-06T06:07:23.844Z,7.03
2022-09-06T06:10:25.894Z,6.45
2022-09-06T06:13:30.104Z,7.10
2022-09-06T06:16:31.925Z,7.55
2022-09-06T06:19:33.689Z,7.78
2022-09-06T06:22:35.545Z,7.68
2022-09-06T06:25:37.320Z,7.55
2022-09-06T06:28:39.954Z,6.95
2022-09-06T06:31:42.868Z,7.28
2022-09-06T06:34:44.706Z,7.57
2022-09-06T06:37:46.343Z,7.45
2022-09-06T06:40:48.092Z,7.32
2022-09-06T06:43:53.924Z,6.65
2022-09-06T06:46:57.911Z,7.18
2022-09-06T06:49:59.962Z,6.43
2022-09-06T06:53:02.796Z,7.13
2022-09-06T06:56:27.888Z,7.25
2022-09-06T06:59:30.014Z,7.05
2022-09-06T07:02:32.105Z,7.18
2022-09-06T07:09:02.351Z,7.43
2022-09-06T07:12:04.345Z,7.38
2022-09-06T07:15:06.342Z,7.43
2022-09-06T07:18:08.244Z,6.85
2022-09-06T07:21:37.577Z,6.82
2022-09-06T07:24:39.868Z,6.60
2022-09-06T07:27:47.529Z,6.78
2022-09-06T07:30:53.963Z,7.53
2022-09-06T07:33:55.839Z,7.20
2022-09-06T07:36:57.664Z,7.88
2022-09-06T07:39:59.466Z,7.20
2022-09-06T07:43:01.364Z,8.13
2022-09-06T07:46:13.569Z,7.53
2022-09-06T07:49:15.411Z,7.63
2022-09-06T07:55:39.250Z,8.10
2022-09-06T07:58:41.320Z,7.40
2022-09-06T08:01:43.361Z,7.22
2022-09-06T08:04:48.642Z,7.50
2022-09-06T08:11:15.327Z,7.28
2022-09-06T08:14:17.170Z,7.20
2022-09-06T08:17:19.010Z,6.25
2022-09-06T08:20:20.931Z,6.68
2022-09-06T08:23:22.794Z,6.30
2022-09-06T08:26:26.109Z,6.47
2022-09-06T08:29:28.085Z,6.68
2022-09-06T08:32:33.540Z,6.78
2022-09-06T08:35:35.330Z,6.47
2022-09-06T08:38:37.955Z,7.03
2022-09-06T08:42:03.819Z,6.35
2022-09-06T08:45:09.480Z,6.70
2022-09-06T08:48:11.474Z,7.05
2022-09-06T08:51:51.661Z,5.97
2022-09-06T08:55:23.445Z,5.53
2022-09-06T08:58:49.069Z,5.28
2022-09-06T09:02:13.017Z,6.45
2022-09-06T09:05:40.196Z,6.15
2022-09-06T09:09:01.851Z,5.45
2022-09-06T09:12:03.828Z,5.68
2022-09-06T09:15:10.165Z,5.85
2022-09-06T09:18:12.033Z,5.60
2022-09-06T09:21:17.189Z,5.32
2022-09-06T09:24:18.976Z,5.22
2022-09-06T09:27:28.419Z,5.40
2022-09-06T09:30:48.771Z,5.03
2022-09-06T09:33:51.479Z,5.35
2022-09-06T09:40:53.789Z,5.22
2022-09-06T09:44:17.812Z,5.45
2022-09-06T09:47:33.177Z,4.78
2022-09-06T09:50:35.842Z,5.18
2022-09-06T09:53:50.806Z,5.13
2022-09-06T09:56:52.990Z,5.75
2022-09-06T10:00:01.708Z,5.15
2022-09-06T10:03:30.079Z,5.53
2022-09-06T10:10:01.837Z,5.25
2022-09-06T10:13:26.754Z,5.30
2022-09-06T10:16:43.550Z,5.25
2022-09-06T10:19:46.548Z,5.35
2022-09-06T10:23:13.112Z,5.78
2022-09-06T10:26:29.296Z,4.70
2022-09-06T10:29:53.245Z,4.85
2022-09-06T10:33:05.177Z,5.25
2022-09-06T10:36:08.137Z,5.20
2022-09-06T10:39:28.549Z,4.88
2022-09-06T10:42:49.454Z,4.70
2022-09-06T10:46:09.554Z,5.40
2022-09-06T10:49:16.943Z,4.57
2022-09-06T10:52:43.611Z,4.43
2022-09-06T10:56:14.406Z,4.68
2022-09-06T10:59:41.669Z,4.82
2022-09-06T11:06:40.335Z,4.35
2022-09-06T11:09:46.275Z,4.43
2022-09-06T11:13:10.016Z,4.32
2022-09-06T11:16:32.737Z,4.63
2022-09-06T11:20:13.253Z,4.35
2022-09-06T11:23:39.740Z,4.38
2022-09-06T11:27:11.856Z,4.57
2022-09-06T11:30:15.798Z,5.00
2022-09-06T11:33:27.660Z,4.60
2022-09-06T11:36:46.692Z,4.72
2022-09-06T11:40:32.371Z,4.07
2022-09-06T11:43:51.764Z,4.28
2022-09-06T11:47:01.065Z,4.27
2022-09-06T11:50:53.946Z,4.90
2022-09-06T11:54:06.582Z,4.60
2022-09-06T11:57:08.213Z,5.05
2022-09-06T12:00:19.880Z,4.57
2022-09-06T12:04:06.171Z,4.20
2022-09-06T12:07:11.803Z,4.90
2022-09-06T12:10:31.814Z,4.30
2022-09-06T12:17:11.562Z,4.40
2022-09-06T12:20:48.118Z,4.82
2022-09-06T12:23:49.985Z,4.65
2022-09-06T12:27:08.410Z,3.85
2022-09-06T12:30:13.747Z,4.28
2022-09-06T12:33:27.696Z,4.60
2022-09-06T12:36:33.176Z,4.32
2022-09-06T12:39:37.742Z,4.72
2022-09-06T12:42:47.715Z,4.93
2022-09-06T12:45:52.511Z,4.35
2022-09-06T12:49:12.276Z,4.40
2022-09-06T12:52:19.043Z,4.07
2022-09-06T12:55:38.739Z,4.38
2022-09-06T12:58:41.002Z,4.53
2022-09-06T13:02:13.823Z,5.00
2022-09-06T13:05:15.748Z,4.22
2022-09-06T13:08:39.973Z,4.25
2022-09-06T13:11:52.225Z,4.60
2022-09-06T13:15:01.119Z,4.13
2022-09-06T13:18:23.998Z,3.90
2022-09-06T13:21:33.182Z,4.50
2022-09-06T13:24:35.376Z,4.40
2022-09-06T13:27:37.719Z,4.50
2022-09-06T13:30:49.541Z,4.47
2022-09-06T13:33:59.550Z,4.78
2022-09-06T13:37:10.749Z,4.20
2022-09-06T13:41:16.111Z,3.83
2022-09-06T13:44:21.981Z,4.00
2022-09-06T13:47:28.849Z,3.85
2022-09-06T13:50:30.790Z,4.65
2022-09-06T13:53:33.935Z,4.43
2022-09-06T13:56:39.290Z,4.22
2022-09-06T13:59:42.829Z,3.78
2022-09-06T14:02:46.618Z,4.40
2022-09-06T14:05:48.936Z,3.90
2022-09-06T14:09:06.303Z,3.88
2022-09-06T14:12:10.209Z,4.30
2022-09-06T14:15:13.435Z,3.83
2022-09-06T14:18:16.521Z,4.20
2022-09-06T14:21:18.244Z,4.13
2022-09-06T14:24:20.154Z,3.95
2022-09-06T14:27:22.350Z,4.40
2022-09-06T14:30:24.435Z,4.20
2022-09-06T14:33:26.164Z,4.30
2022-09-06T14:36:29.823Z,4.20
2022-09-06T14:39:31.613Z,4.25
2022-09-06T14:42:33.466Z,3.97
2022-09-06T14:45:35.886Z,4.35
2022-09-06T14:48:41.623Z,4.47
2022-09-06T14:51:45.958Z,4.20
2022-09-06T14:54:47.956Z,3.72
2022-09-06T14:57:50.193Z,3.92
2022-09-06T15:00:52.820Z,3.75
2022-09-06T15:04:00.133Z,4.05
2022-09-06T15:07:02.056Z,4.30
2022-09-06T15:10:05.036Z,3.88
2022-09-06T15:13:06.770Z,3.70
2022-09-06T15:16:10.465Z,4.15
2022-09-06T15:19:13.097Z,3.65
2022-09-06T15:22:14.730Z,3.95
2022-09-06T15:25:16.743Z,3.83
2022-09-06T15:28:19.764Z,3.75
2022-09-06T15:31:21.727Z,4.50
2022-09-06T15:34:25.141Z,3.88
2022-09-06T15:37:27.053Z,4.18
2022-09-06T15:40:28.825Z,3.85
2022-09-06T15:43:32.988Z,4.57
2022-09-06T15:46:34.641Z,4.00
2022-09-06T15:49:37.418Z,4.00
2022-09-06T15:52:39.396Z,4.20
2022-09-06T15:55:59.928Z,4.03
2022-09-06T15:59:01.955Z,3.72
2022-09-06T16:02:03.839Z,3.97
2022-09-06T16:05:06.353Z,3.95
2022-09-06T16:08:08.374Z,4.32
2022-09-06T16:11:13.871Z,4.25
2022-09-06T16:14:16.726Z,4.15
2022-09-06T16:17:18.456Z,3.78
2022-09-06T16:20:20.394Z,4.32
2022-09-06T16:23:22.751Z,4.28
2022-09-06T16:26:26.952Z,3.92
2022-09-06T16:29:28.739Z,3.95
2022-09-06T16:32:30.678Z,4.30
2022-09-06T16:35:32.532Z,4.05
2022-09-06T16:38:35.075Z,3.67
2022-09-06T16:41:40.861Z,3.70
2022-09-06T16:44:43.201Z,4.20
2022-09-06T16:47:46.725Z,4.18
2022-09-06T16:50:48.709Z,4.50
2022-09-06T16:53:51.980Z,3.83
2022-09-06T16:56:54.101Z,4.03
2022-09-06T16:59:55.866Z,4.47
2022-09-06T17:02:58.751Z,4.13
2022-09-06T17:06:00.651Z,4.45
2022-09-06T17:09:02.441Z,4.20
2022-09-06T17:12:04.921Z,4.20
2022-09-06T17:15:07.405Z,4.35
2022-09-06T17:18:09.149Z,4.50
2022-09-06T17:21:11.602Z,4.30
2022-09-06T17:24:13.538Z,4.35
2022-09-06T17:27:15.993Z,4.70
2022-09-06T17:30:17.855Z,4.70
2022-09-06T17:33:21.233Z,4.40
2022-09-06T17:36:25.178Z,4.07
2022-09-06T17:39:26.936Z,4.25
2022-09-06T17:42:31.779Z,5.10
2022-09-06T17:45:43.009Z,4.13
2022-09-06T17:48:44.813Z,4.80
2022-09-06T17:51:47.260Z,4.75
2022-09-06T17:54:49.308Z,4.80
2022-09-06T17:57:50.999Z,4.47
2022-09-06T18:00:52.945Z,4.60
2022-09-06T18:03:54.733Z,4.30
2022-09-06T18:06:56.447Z,4.57
2022-09-06T18:09:58.698Z,3.97
2022-09-06T18:13:00.372Z,3.78
2022-09-06T18:16:03.639Z,4.13
2022-09-06T18:19:07.647Z,4.55
2022-09-06T18:22:09.638Z,4.50
2022-09-06T18:25:11.427Z,4.03
2022-09-06T18:28:13.152Z,4.28
2022-09-06T18:31:18.312Z,4.28
2022-09-06T18:34:20.103Z,4.03
2022-09-06T18:37:21.985Z,4.22
2022-09-06T18:40:23.631Z,4.28
2022-09-06T18:43:31.966Z,4.28
2022-09-06T18:46:36.262Z,4.05
2022-09-06T18:49:43.220Z,4.28
2022-09-06T18:52:45.606Z,4.32
2022-09-06T18:55:51.788Z,4.65
2022-09-06T18:59:02.087Z,4.15
2022-09-06T19:05:06.341Z,4.47
2022-09-06T19:08:08.054Z,4.25
2022-09-06T19:11:17.099Z,4.28
2022-09-06T19:14:19.148Z,4.63
2022-09-06T19:17:21.020Z,3.75
2022-09-06T19:20:23.586Z,4.25
2022-09-06T19:23:26.860Z,4.25
2022-09-06T19:26:31.622Z,4.40
2022-09-06T19:29:33.705Z,4.50
2022-09-06T19:32:35.673Z,4.68
2022-09-06T19:35:43.745Z,4.40
2022-09-06T19:42:07.474Z,4.20
2022-09-06T19:45:09.699Z,4.20
2022-09-06T19:48:11.734Z,4.53
2022-09-06T19:51:20.232Z,4.53
2022-09-06T19:54:22.172Z,4.65
2022-09-06T19:57:23.815Z,5.03
2022-09-06T20:00:27.164Z,4.82
2022-09-06T20:03:29.031Z,4.70
2022-09-06T20:06:31.067Z,4.68
2022-09-06T20:09:33.054Z,5.07
2022-09-06T20:12:34.937Z,4.78
2022-09-06T20:15:37.717Z,4.80
2022-09-06T20:18:40.253Z,4.63
2022-09-06T20:21:42.645Z,4.50
2022-09-06T20:24:44.527Z,4.68
2022-09-06T20:27:46.191Z,4.97
2022-09-06T20:30:49.123Z,4.90
2022-09-06T20:33:50.865Z,4.63
2022-09-06T20:36:52.440Z,4.93
2022-09-06T20:39:55.687Z,5.32
2022-09-06T20:42:57.672Z,4.80
2022-09-06T20:46:00.369Z,5.20
2022-09-06T20:49:05.457Z,5.28
2022-09-06T20:52:07.415Z,5.00
2022-09-06T20:55:10.001Z,5.32
2022-09-06T20:58:11.786Z,4.72
2022-09-06T21:01:16.018Z,5.40
2022-09-06T21:04:17.742Z,5.53
2022-09-06T21:07:19.476Z,5.20
2022-09-06T21:10:22.297Z,5.30
2022-09-06T21:13:25.389Z,4.93
2022-09-06T21:16:29.144Z,5.80
2022-09-06T21:19:31.093Z,5.25
2022-09-06T21:22:33.153Z,5.57
2022-09-06T21:25:36.184Z,5.07
2022-09-06T21:28:40.942Z,5.40
2022-09-06T21:31:42.990Z,5.50
2022-09-06T21:34:44.651Z,5.32
2022-09-06T21:37:46.556Z,5.25
2022-09-06T21:40:48.654Z,5.28
2022-09-06T21:43:58.425Z,5.65
2022-09-06T21:47:00.595Z,5.68
2022-09-06T21:50:02.330Z,5.65
2022-09-06T21:53:03.869Z,5.70
2022-09-06T21:56:06.583Z,5.50
2022-09-06T21:59:08.898Z,5.45
2022-09-06T22:02:11.121Z,6.43
2022-09-06T22:05:12.960Z,5.65
2022-09-06T22:08:14.737Z,5.75
2022-09-06T22:11:26.281Z,6.22
2022-09-06T22:14:28.132Z,6.45
2022-09-06T22:17:29.876Z,6.53
2022-09-06T22:20:31.721Z,6.05
2022-09-06T22:23:33.886Z,5.65
2022-09-06T22:26:37.142Z,6.40
2022-09-06T22:29:38.955Z,6.22
2022-09-06T22:32:41.614Z,6.60
2022-09-06T22:35:43.469Z,6.18
2022-09-06T22:38:45.085Z,6.20
2022-09-06T22:41:47.086Z,6.30
2022-09-06T22:44:49.823Z,6.20
2022-09-06T22:47:51.606Z,6.85
2022-09-06T22:50:53.374Z,6.28
2022-09-06T22:53:55.355Z,6.85
2022-09-06T22:56:57.606Z,6.20
2022-09-06T23:00:00.296Z,6.32
2022-09-06T23:03:02.006Z,6.28
2022-09-06T23:06:04.188Z,6.47
2022-09-06T23:09:06.502Z,6.68
2022-09-06T23:12:08.336Z,6.38
2022-09-06T23:15:10.063Z,6.20
2022-09-06T23:18:12.218Z,6.22
2022-09-06T23:21:23.519Z,6.28
2022-09-06T23:24:25.997Z,5.90
2022-09-06T23:27:27.892Z,6.30
2022-09-06T23:30:30.153Z,5.95
2022-09-06T23:33:35.074Z,5.68
2022-09-06T23:36:36.925Z,6.22
2022-09-06T23:39:38.707Z,5.88
2022-09-06T23:42:40.392Z,7.20
2022-09-06T23:45:42.321Z,6.15
2022-09-06T23:48:44.354Z,5.68
2022-09-06T23:51:46.233Z,5.88
2022-09-06T23:54:48.029Z,6.03
2022-09-06T23:57:51.150Z,5.55
